sensor_id;sensor_type;location;lat;lon;timestamp;pressure;altitude;pressure_sealevel;temperature
38114;BMP180;23926;53.222;6.354;2022-10-16T00:00:37;100634.00;;;15.50
38114;BMP180;23926;53.222;6.354;2022-10-16T00:03:03;100634.00;;;15.50
38114;BMP180;23926;53.222;6.354;2022-10-16T00:05:29;100631.00;;;15.40
38114;BMP180;23926;53.222;6.354;2022-10-16T00:07:54;100635.00;;;15.40
38114;BMP180;23926;53.222;6.354;2022-10-16T00:10:20;100629.00;;;15.40
38114;BMP180;23926;53.222;6.354;2022-10-16T00:12:46;100635.00;;;15.40
38114;BMP180;23926;53.222;6.354;2022-10-16T00:15:11;100630.00;;;15.30
38114;BMP180;23926;53.222;6.354;2022-10-16T00:17:37;100628.00;;;15.30
38114;BMP180;23926;53.222;6.354;2022-10-16T00:20:02;100633.00;;;15.30
38114;BMP180;23926;53.222;6.354;2022-10-16T00:22:28;100632.00;;;15.20
38114;BMP180;23926;53.222;6.354;2022-10-16T00:24:53;100625.00;;;15.20
38114;BMP180;23926;53.222;6.354;2022-10-16T00:27:19;100632.00;;;15.20
38114;BMP180;23926;53.222;6.354;2022-10-16T00:29:44;100626.00;;;15.20
38114;BMP180;23926;53.222;6.354;2022-10-16T00:32:09;100637.00;;;15.20
38114;BMP180;23926;53.222;6.354;2022-10-16T00:34:35;100628.00;;;15.20
38114;BMP180;23926;53.222;6.354;2022-10-16T00:37:00;100622.00;;;15.20
38114;BMP180;23926;53.222;6.354;2022-10-16T00:39:26;100624.00;;;15.20
38114;BMP180;23926;53.222;6.354;2022-10-16T00:41:51;100613.00;;;15.20
38114;BMP180;23926;53.222;6.354;2022-10-16T00:47:09;100617.00;;;15.20
38114;BMP180;23926;53.222;6.354;2022-10-16T00:49:36;100616.00;;;15.20
38114;BMP180;23926;53.222;6.354;2022-10-16T00:52:01;100617.00;;;15.20
38114;BMP180;23926;53.222;6.354;2022-10-16T00:54:29;100624.00;;;15.20
38114;BMP180;23926;53.222;6.354;2022-10-16T00:56:58;100613.00;;;15.30
38114;BMP180;23926;53.222;6.354;2022-10-16T00:59:37;100611.00;;;15.30
38114;BMP180;23926;53.222;6.354;2022-10-16T01:02:06;100606.00;;;15.30
38114;BMP180;23926;53.222;6.354;2022-10-16T01:04:52;100608.00;;;15.30
38114;BMP180;23926;53.222;6.354;2022-10-16T01:10:06;100600.00;;;15.30
38114;BMP180;23926;53.222;6.354;2022-10-16T01:15:30;100619.00;;;15.30
38114;BMP180;23926;53.222;6.354;2022-10-16T01:18:25;100620.00;;;15.40
38114;BMP180;23926;53.222;6.354;2022-10-16T01:20:52;100611.00;;;15.40
38114;BMP180;23926;53.222;6.354;2022-10-16T01:28:36;100618.00;;;15.50
38114;BMP180;23926;53.222;6.354;2022-10-16T01:31:03;100608.00;;;15.50
38114;BMP180;23926;53.222;6.354;2022-10-16T01:33:40;100615.00;;;15.50
38114;BMP180;23926;53.222;6.354;2022-10-16T01:36:14;100616.00;;;15.60
38114;BMP180;23926;53.222;6.354;2022-10-16T01:38:42;100599.00;;;15.60
38114;BMP180;23926;53.222;6.354;2022-10-16T01:41:17;100625.00;;;15.70
38114;BMP180;23926;53.222;6.354;2022-10-16T01:43:48;100624.00;;;15.70
38114;BMP180;23926;53.222;6.354;2022-10-16T01:46:18;100611.00;;;15.70
38114;BMP180;23926;53.222;6.354;2022-10-16T01:48:43;100620.00;;;15.80
38114;BMP180;23926;53.222;6.354;2022-10-16T01:51:12;100642.00;;;15.80
38114;BMP180;23926;53.222;6.354;2022-10-16T01:53:43;100629.00;;;15.80
38114;BMP180;23926;53.222;6.354;2022-10-16T01:56:12;100635.00;;;15.80
38114;BMP180;23926;53.222;6.354;2022-10-16T01:58:43;100621.00;;;15.70
38114;BMP180;23926;53.222;6.354;2022-10-16T02:01:11;100635.00;;;15.80
38114;BMP180;23926;53.222;6.354;2022-10-16T02:03:40;100625.00;;;15.80
38114;BMP180;23926;53.222;6.354;2022-10-16T02:06:06;100635.00;;;15.80
38114;BMP180;23926;53.222;6.354;2022-10-16T02:08:32;100632.00;;;15.80
38114;BMP180;23926;53.222;6.354;2022-10-16T02:11:00;100647.00;;;15.90
38114;BMP180;23926;53.222;6.354;2022-10-16T02:13:31;100642.00;;;15.90
38114;BMP180;23926;53.222;6.354;2022-10-16T02:15:58;100632.00;;;15.90
38114;BMP180;23926;53.222;6.354;2022-10-16T02:18:24;100631.00;;;15.90
38114;BMP180;23926;53.222;6.354;2022-10-16T02:21:06;100644.00;;;16.00
38114;BMP180;23926;53.222;6.354;2022-10-16T02:24:08;100635.00;;;16.10
38114;BMP180;23926;53.222;6.354;2022-10-16T02:27:16;100645.00;;;16.10
38114;BMP180;23926;53.222;6.354;2022-10-16T02:29:47;100639.00;;;16.10
38114;BMP180;23926;53.222;6.354;2022-10-16T02:32:21;100641.00;;;16.10
38114;BMP180;23926;53.222;6.354;2022-10-16T02:34:49;100644.00;;;16.10
38114;BMP180;23926;53.222;6.354;2022-10-16T02:37:16;100650.00;;;16.10
38114;BMP180;23926;53.222;6.354;2022-10-16T02:39:42;100627.00;;;16.10
38114;BMP180;23926;53.222;6.354;2022-10-16T02:42:12;100641.00;;;16.10
38114;BMP180;23926;53.222;6.354;2022-10-16T02:44:38;100614.00;;;16.00
38114;BMP180;23926;53.222;6.354;2022-10-16T02:47:03;100640.00;;;16.00
38114;BMP180;23926;53.222;6.354;2022-10-16T02:49:28;100626.00;;;16.00
38114;BMP180;23926;53.222;6.354;2022-10-16T02:51:54;100647.00;;;16.00
38114;BMP180;23926;53.222;6.354;2022-10-16T02:54:19;100646.00;;;15.80
38114;BMP180;23926;53.222;6.354;2022-10-16T02:56:45;100628.00;;;15.70
38114;BMP180;23926;53.222;6.354;2022-10-16T02:59:10;100640.00;;;15.60
38114;BMP180;23926;53.222;6.354;2022-10-16T03:01:36;100633.00;;;15.50
38114;BMP180;23926;53.222;6.354;2022-10-16T03:04:01;100643.00;;;15.40
38114;BMP180;23926;53.222;6.354;2022-10-16T03:06:27;100640.00;;;15.40
38114;BMP180;23926;53.222;6.354;2022-10-16T03:08:52;100644.00;;;15.40
38114;BMP180;23926;53.222;6.354;2022-10-16T03:11:17;100644.00;;;15.30
38114;BMP180;23926;53.222;6.354;2022-10-16T03:13:43;100642.00;;;15.20
38114;BMP180;23926;53.222;6.354;2022-10-16T03:16:08;100648.00;;;15.20
38114;BMP180;23926;53.222;6.354;2022-10-16T03:18:34;100651.00;;;15.20
38114;BMP180;23926;53.222;6.354;2022-10-16T03:20:59;100650.00;;;15.10
38114;BMP180;23926;53.222;6.354;2022-10-16T03:23:24;100642.00;;;15.10
38114;BMP180;23926;53.222;6.354;2022-10-16T03:25:50;100636.00;;;15.10
38114;BMP180;23926;53.222;6.354;2022-10-16T03:28:15;100645.00;;;15.10
38114;BMP180;23926;53.222;6.354;2022-10-16T03:30:40;100640.00;;;15.10
38114;BMP180;23926;53.222;6.354;2022-10-16T03:33:06;100628.00;;;15.10
38114;BMP180;23926;53.222;6.354;2022-10-16T03:35:32;100646.00;;;15.10
38114;BMP180;23926;53.222;6.354;2022-10-16T03:37:58;100662.00;;;15.00
38114;BMP180;23926;53.222;6.354;2022-10-16T03:40:23;100666.00;;;15.10
38114;BMP180;23926;53.222;6.354;2022-10-16T03:42:49;100656.00;;;15.00
38114;BMP180;23926;53.222;6.354;2022-10-16T03:45:14;100656.00;;;15.10
38114;BMP180;23926;53.222;6.354;2022-10-16T03:47:40;100658.00;;;15.00
38114;BMP180;23926;53.222;6.354;2022-10-16T03:50:06;100666.00;;;15.10
38114;BMP180;23926;53.222;6.354;2022-10-16T03:52:32;100652.00;;;15.00
38114;BMP180;23926;53.222;6.354;2022-10-16T03:54:58;100648.00;;;15.00
38114;BMP180;23926;53.222;6.354;2022-10-16T03:57:23;100665.00;;;15.00
38114;BMP180;23926;53.222;6.354;2022-10-16T03:59:48;100662.00;;;14.90
38114;BMP180;23926;53.222;6.354;2022-10-16T04:02:14;100665.00;;;14.90
38114;BMP180;23926;53.222;6.354;2022-10-16T04:04:39;100675.00;;;15.00
38114;BMP180;23926;53.222;6.354;2022-10-16T04:07:05;100676.00;;;15.00
38114;BMP180;23926;53.222;6.354;2022-10-16T04:09:30;100675.00;;;15.10
38114;BMP180;23926;53.222;6.354;2022-10-16T04:11:56;100677.00;;;15.10
38114;BMP180;23926;53.222;6.354;2022-10-16T04:14:21;100682.00;;;15.00
38114;BMP180;23926;53.222;6.354;2022-10-16T04:16:46;100675.00;;;15.00
38114;BMP180;23926;53.222;6.354;2022-10-16T04:19:12;100683.00;;;15.10
38114;BMP180;23926;53.222;6.354;2022-10-16T04:21:37;100695.00;;;15.10
38114;BMP180;23926;53.222;6.354;2022-10-16T04:24:03;100711.00;;;15.20
38114;BMP180;23926;53.222;6.354;2022-10-16T04:26:29;100713.00;;;15.30
38114;BMP180;23926;53.222;6.354;2022-10-16T04:28:54;100709.00;;;15.30
38114;BMP180;23926;53.222;6.354;2022-10-16T04:31:20;100725.00;;;15.30
38114;BMP180;23926;53.222;6.354;2022-10-16T04:33:46;100721.00;;;15.30
38114;BMP180;23926;53.222;6.354;2022-10-16T04:36:12;100728.00;;;15.30
38114;BMP180;23926;53.222;6.354;2022-10-16T04:38:37;100724.00;;;15.30
38114;BMP180;23926;53.222;6.354;2022-10-16T04:41:04;100720.00;;;15.40
38114;BMP180;23926;53.222;6.354;2022-10-16T04:43:30;100737.00;;;15.50
38114;BMP180;23926;53.222;6.354;2022-10-16T04:45:55;100753.00;;;15.50
38114;BMP180;23926;53.222;6.354;2022-10-16T04:48:21;100734.00;;;15.60
38114;BMP180;23926;53.222;6.354;2022-10-16T04:50:47;100717.00;;;15.60
38114;BMP180;23926;53.222;6.354;2022-10-16T04:53:13;100736.00;;;15.60
38114;BMP180;23926;53.222;6.354;2022-10-16T04:55:38;100738.00;;;15.60
38114;BMP180;23926;53.222;6.354;2022-10-16T04:58:04;100714.00;;;15.70
38114;BMP180;23926;53.222;6.354;2022-10-16T05:00:30;100716.00;;;15.70
38114;BMP180;23926;53.222;6.354;2022-10-16T05:02:55;100727.00;;;15.70
38114;BMP180;23926;53.222;6.354;2022-10-16T05:05:21;100722.00;;;15.70
38114;BMP180;23926;53.222;6.354;2022-10-16T05:07:47;100737.00;;;15.80
38114;BMP180;23926;53.222;6.354;2022-10-16T05:10:13;100712.00;;;15.80
38114;BMP180;23926;53.222;6.354;2022-10-16T05:12:38;100719.00;;;15.80
38114;BMP180;23926;53.222;6.354;2022-10-16T05:15:04;100735.00;;;15.80
38114;BMP180;23926;53.222;6.354;2022-10-16T05:17:30;100726.00;;;15.80
38114;BMP180;23926;53.222;6.354;2022-10-16T05:19:55;100736.00;;;15.80
38114;BMP180;23926;53.222;6.354;2022-10-16T05:22:21;100751.00;;;15.80
38114;BMP180;23926;53.222;6.354;2022-10-16T05:24:46;100720.00;;;15.80
38114;BMP180;23926;53.222;6.354;2022-10-16T05:27:12;100723.00;;;15.80
38114;BMP180;23926;53.222;6.354;2022-10-16T05:29:47;100733.00;;;15.80
38114;BMP180;23926;53.222;6.354;2022-10-16T05:32:17;100749.00;;;15.80
38114;BMP180;23926;53.222;6.354;2022-10-16T05:34:44;100751.00;;;15.80
38114;BMP180;23926;53.222;6.354;2022-10-16T05:37:10;100755.00;;;15.80
38114;BMP180;23926;53.222;6.354;2022-10-16T05:39:37;100759.00;;;15.80
38114;BMP180;23926;53.222;6.354;2022-10-16T05:42:03;100753.00;;;15.70
38114;BMP180;23926;53.222;6.354;2022-10-16T05:44:28;100762.00;;;15.60
38114;BMP180;23926;53.222;6.354;2022-10-16T05:46:53;100754.00;;;15.60
38114;BMP180;23926;53.222;6.354;2022-10-16T05:49:19;100743.00;;;15.50
38114;BMP180;23926;53.222;6.354;2022-10-16T05:51:44;100760.00;;;15.40
38114;BMP180;23926;53.222;6.354;2022-10-16T05:54:10;100756.00;;;15.30
38114;BMP180;23926;53.222;6.354;2022-10-16T05:56:35;100768.00;;;15.20
38114;BMP180;23926;53.222;6.354;2022-10-16T05:59:00;100785.00;;;15.20
38114;BMP180;23926;53.222;6.354;2022-10-16T06:01:27;100773.00;;;15.20
38114;BMP180;23926;53.222;6.354;2022-10-16T06:03:53;100798.00;;;15.20
38114;BMP180;23926;53.222;6.354;2022-10-16T06:06:23;100807.00;;;15.10
38114;BMP180;23926;53.222;6.354;2022-10-16T06:08:51;100805.00;;;15.00
38114;BMP180;23926;53.222;6.354;2022-10-16T06:11:23;100803.00;;;15.00
38114;BMP180;23926;53.222;6.354;2022-10-16T06:13:53;100800.00;;;15.10
38114;BMP180;23926;53.222;6.354;2022-10-16T06:16:19;100790.00;;;15.20
38114;BMP180;23926;53.222;6.354;2022-10-16T06:18:45;100774.00;;;15.20
38114;BMP180;23926;53.222;6.354;2022-10-16T06:21:12;100784.00;;;15.30
38114;BMP180;23926;53.222;6.354;2022-10-16T06:23:39;100788.00;;;15.30
38114;BMP180;23926;53.222;6.354;2022-10-16T06:26:09;100791.00;;;15.30
38114;BMP180;23926;53.222;6.354;2022-10-16T06:28:35;100784.00;;;15.40
38114;BMP180;23926;53.222;6.354;2022-10-16T06:31:01;100807.00;;;15.50
38114;BMP180;23926;53.222;6.354;2022-10-16T06:33:26;100805.00;;;15.60
38114;BMP180;23926;53.222;6.354;2022-10-16T06:35:52;100787.00;;;15.60
38114;BMP180;23926;53.222;6.354;2022-10-16T06:38:17;100802.00;;;15.70
38114;BMP180;23926;53.222;6.354;2022-10-16T06:40:43;100794.00;;;15.70
38114;BMP180;23926;53.222;6.354;2022-10-16T06:43:08;100820.00;;;15.70
38114;BMP180;23926;53.222;6.354;2022-10-16T06:45:34;100804.00;;;15.70
38114;BMP180;23926;53.222;6.354;2022-10-16T06:47:59;100806.00;;;15.60
38114;BMP180;23926;53.222;6.354;2022-10-16T06:50:24;100808.00;;;15.70
38114;BMP180;23926;53.222;6.354;2022-10-16T06:52:50;100813.00;;;15.70
38114;BMP180;23926;53.222;6.354;2022-10-16T06:55:15;100820.00;;;15.70
38114;BMP180;23926;53.222;6.354;2022-10-16T06:57:42;100844.00;;;15.70
38114;BMP180;23926;53.222;6.354;2022-10-16T07:00:08;100843.00;;;15.80
38114;BMP180;23926;53.222;6.354;2022-10-16T07:02:33;100834.00;;;15.80
38114;BMP180;23926;53.222;6.354;2022-10-16T07:04:59;100850.00;;;15.80
38114;BMP180;23926;53.222;6.354;2022-10-16T07:07:24;100844.00;;;15.80
38114;BMP180;23926;53.222;6.354;2022-10-16T07:09:51;100855.00;;;15.90
38114;BMP180;23926;53.222;6.354;2022-10-16T07:12:17;100885.00;;;16.00
38114;BMP180;23926;53.222;6.354;2022-10-16T07:14:42;100868.00;;;16.00
38114;BMP180;23926;53.222;6.354;2022-10-16T07:17:08;100893.00;;;16.00
38114;BMP180;23926;53.222;6.354;2022-10-16T07:19:33;100877.00;;;16.00
38114;BMP180;23926;53.222;6.354;2022-10-16T07:21:59;100904.00;;;16.00
38114;BMP180;23926;53.222;6.354;2022-10-16T07:24:24;100894.00;;;16.00
38114;BMP180;23926;53.222;6.354;2022-10-16T07:26:50;100893.00;;;16.00
38114;BMP180;23926;53.222;6.354;2022-10-16T07:29:18;100911.00;;;16.10
38114;BMP180;23926;53.222;6.354;2022-10-16T07:31:44;100904.00;;;16.10
38114;BMP180;23926;53.222;6.354;2022-10-16T07:34:12;100907.00;;;16.10
38114;BMP180;23926;53.222;6.354;2022-10-16T07:36:37;100923.00;;;16.10
38114;BMP180;23926;53.222;6.354;2022-10-16T07:39:03;100920.00;;;16.00
38114;BMP180;23926;53.222;6.354;2022-10-16T07:41:29;100920.00;;;16.10
38114;BMP180;23926;53.222;6.354;2022-10-16T07:43:55;100929.00;;;16.00
38114;BMP180;23926;53.222;6.354;2022-10-16T07:46:23;100922.00;;;15.90
38114;BMP180;23926;53.222;6.354;2022-10-16T07:48:48;100937.00;;;15.80
38114;BMP180;23926;53.222;6.354;2022-10-16T07:51:19;100926.00;;;15.80
38114;BMP180;23926;53.222;6.354;2022-10-16T07:53:45;100946.00;;;15.70
38114;BMP180;23926;53.222;6.354;2022-10-16T07:56:12;100923.00;;;15.70
38114;BMP180;23926;53.222;6.354;2022-10-16T07:58:37;100918.00;;;15.70
38114;BMP180;23926;53.222;6.354;2022-10-16T08:01:05;100925.00;;;15.70
38114;BMP180;23926;53.222;6.354;2022-10-16T08:03:30;100944.00;;;15.60
38114;BMP180;23926;53.222;6.354;2022-10-16T08:05:57;100948.00;;;15.80
38114;BMP180;23926;53.222;6.354;2022-10-16T08:08:22;100939.00;;;15.90
38114;BMP180;23926;53.222;6.354;2022-10-16T08:10:48;100956.00;;;16.00
38114;BMP180;23926;53.222;6.354;2022-10-16T08:13:13;100970.00;;;16.30
38114;BMP180;23926;53.222;6.354;2022-10-16T08:15:41;100979.00;;;16.60
38114;BMP180;23926;53.222;6.354;2022-10-16T08:18:06;100976.00;;;16.90
38114;BMP180;23926;53.222;6.354;2022-10-16T08:20:32;101000.00;;;17.00
38114;BMP180;23926;53.222;6.354;2022-10-16T08:23:02;100988.00;;;17.10
38114;BMP180;23926;53.222;6.354;2022-10-16T08:25:28;100984.00;;;17.30
38114;BMP180;23926;53.222;6.354;2022-10-16T08:27:53;100993.00;;;17.20
38114;BMP180;23926;53.222;6.354;2022-10-16T08:30:20;100987.00;;;17.20
38114;BMP180;23926;53.222;6.354;2022-10-16T08:32:46;100979.00;;;17.00
38114;BMP180;23926;53.222;6.354;2022-10-16T08:35:12;100982.00;;;16.90
38114;BMP180;23926;53.222;6.354;2022-10-16T08:37:38;101003.00;;;17.00
38114;BMP180;23926;53.222;6.354;2022-10-16T08:40:05;101018.00;;;17.10
38114;BMP180;23926;53.222;6.354;2022-10-16T08:50:31;101004.00;;;17.10
38114;BMP180;23926;53.222;6.354;2022-10-16T08:52:58;101025.00;;;17.00
38114;BMP180;23926;53.222;6.354;2022-10-16T08:55:46;101035.00;;;17.10
38114;BMP180;23926;53.222;6.354;2022-10-16T08:58:16;101047.00;;;17.00
38114;BMP180;23926;53.222;6.354;2022-10-16T09:00:44;101041.00;;;17.10
38114;BMP180;23926;53.222;6.354;2022-10-16T09:03:40;101056.00;;;17.30
38114;BMP180;23926;53.222;6.354;2022-10-16T09:09:00;101069.00;;;17.60
38114;BMP180;23926;53.222;6.354;2022-10-16T09:22:33;101088.00;;;18.20
38114;BMP180;23926;53.222;6.354;2022-10-16T09:25:11;101101.00;;;18.30
38114;BMP180;23926;53.222;6.354;2022-10-16T09:27:37;101091.00;;;18.40
38114;BMP180;23926;53.222;6.354;2022-10-16T09:30:20;101102.00;;;18.20
38114;BMP180;23926;53.222;6.354;2022-10-16T09:32:48;101101.00;;;18.10
38114;BMP180;23926;53.222;6.354;2022-10-16T09:35:20;101106.00;;;18.20
38114;BMP180;23926;53.222;6.354;2022-10-16T09:37:49;101126.00;;;18.10
38114;BMP180;23926;53.222;6.354;2022-10-16T09:40:38;101117.00;;;18.10
38114;BMP180;23926;53.222;6.354;2022-10-16T09:43:26;101120.00;;;18.10
38114;BMP180;23926;53.222;6.354;2022-10-16T09:48:21;101122.00;;;18.10
38114;BMP180;23926;53.222;6.354;2022-10-16T09:50:58;101122.00;;;17.90
38114;BMP180;23926;53.222;6.354;2022-10-16T09:53:23;101115.00;;;18.00
38114;BMP180;23926;53.222;6.354;2022-10-16T09:55:52;101130.00;;;18.00
38114;BMP180;23926;53.222;6.354;2022-10-16T09:58:21;101130.00;;;18.00
38114;BMP180;23926;53.222;6.354;2022-10-16T10:00:52;101122.00;;;18.00
38114;BMP180;23926;53.222;6.354;2022-10-16T10:03:35;101150.00;;;18.10
38114;BMP180;23926;53.222;6.354;2022-10-16T10:06:24;101143.00;;;18.10
38114;BMP180;23926;53.222;6.354;2022-10-16T10:09:17;101149.00;;;18.10
38114;BMP180;23926;53.222;6.354;2022-10-16T10:11:46;101125.00;;;18.20
38114;BMP180;23926;53.222;6.354;2022-10-16T10:14:35;101146.00;;;18.30
38114;BMP180;23926;53.222;6.354;2022-10-16T10:27:52;101177.00;;;18.70
38114;BMP180;23926;53.222;6.354;2022-10-16T10:38:49;101183.00;;;19.20
38114;BMP180;23926;53.222;6.354;2022-10-16T10:44:37;101200.00;;;18.90
38114;BMP180;23926;53.222;6.354;2022-10-16T10:50:12;101211.00;;;18.50
38114;BMP180;23926;53.222;6.354;2022-10-16T11:01:01;101212.00;;;18.80
38114;BMP180;23926;53.222;6.354;2022-10-16T11:03:44;101215.00;;;18.80
38114;BMP180;23926;53.222;6.354;2022-10-16T11:06:33;101220.00;;;19.10
38114;BMP180;23926;53.222;6.354;2022-10-16T11:09:02;101222.00;;;19.10
38114;BMP180;23926;53.222;6.354;2022-10-16T11:11:36;101219.00;;;19.00
38114;BMP180;23926;53.222;6.354;2022-10-16T11:14:15;101224.00;;;19.00
38114;BMP180;23926;53.222;6.354;2022-10-16T11:17:01;101233.00;;;19.20
38114;BMP180;23926;53.222;6.354;2022-10-16T11:22:34;101260.00;;;19.30
38114;BMP180;23926;53.222;6.354;2022-10-16T11:25:18;101251.00;;;19.20
38114;BMP180;23926;53.222;6.354;2022-10-16T11:28:07;101242.00;;;19.00
38114;BMP180;23926;53.222;6.354;2022-10-16T11:30:44;101262.00;;;18.80
38114;BMP180;23926;53.222;6.354;2022-10-16T11:36:31;101262.00;;;18.40
38114;BMP180;23926;53.222;6.354;2022-10-16T11:39:25;101267.00;;;18.30
38114;BMP180;23926;53.222;6.354;2022-10-16T11:45:07;101286.00;;;18.50
38114;BMP180;23926;53.222;6.354;2022-10-16T11:47:45;101279.00;;;18.70
38114;BMP180;23926;53.222;6.354;2022-10-16T11:50:22;101265.00;;;19.10
38114;BMP180;23926;53.222;6.354;2022-10-16T11:55:31;101265.00;;;19.80
38114;BMP180;23926;53.222;6.354;2022-10-16T11:58:06;101287.00;;;19.80
38114;BMP180;23926;53.222;6.354;2022-10-16T12:00:53;101293.00;;;19.80
38114;BMP180;23926;53.222;6.354;2022-10-16T12:03:31;101289.00;;;20.00
38114;BMP180;23926;53.222;6.354;2022-10-16T12:06:27;101306.00;;;19.90
38114;BMP180;23926;53.222;6.354;2022-10-16T12:08:55;101314.00;;;19.90
38114;BMP180;23926;53.222;6.354;2022-10-16T12:14:34;101326.00;;;19.60
38114;BMP180;23926;53.222;6.354;2022-10-16T12:19:57;101334.00;;;19.30
38114;BMP180;23926;53.222;6.354;2022-10-16T12:22:28;101343.00;;;19.20
38114;BMP180;23926;53.222;6.354;2022-10-16T12:24:54;101339.00;;;19.00
38114;BMP180;23926;53.222;6.354;2022-10-16T12:27:30;101337.00;;;18.90
38114;BMP180;23926;53.222;6.354;2022-10-16T12:30:02;101340.00;;;19.00
38114;BMP180;23926;53.222;6.354;2022-10-16T12:32:33;101346.00;;;19.00
38114;BMP180;23926;53.222;6.354;2022-10-16T12:35:00;101337.00;;;18.80
38114;BMP180;23926;53.222;6.354;2022-10-16T12:37:31;101363.00;;;18.80
38114;BMP180;23926;53.222;6.354;2022-10-16T12:39:59;101339.00;;;18.60
38114;BMP180;23926;53.222;6.354;2022-10-16T12:44:54;101352.00;;;18.80
38114;BMP180;23926;53.222;6.354;2022-10-16T12:49:58;101342.00;;;18.50
38114;BMP180;23926;53.222;6.354;2022-10-16T12:52:44;101375.00;;;18.50
38114;BMP180;23926;53.222;6.354;2022-10-16T12:55:16;101373.00;;;18.50
38114;BMP180;23926;53.222;6.354;2022-10-16T13:00:44;101375.00;;;18.40
38114;BMP180;23926;53.222;6.354;2022-10-16T13:09:02;101389.00;;;18.30
38114;BMP180;23926;53.222;6.354;2022-10-16T13:11:52;101393.00;;;18.30
38114;BMP180;23926;53.222;6.354;2022-10-16T13:17:23;101392.00;;;18.20
38114;BMP180;23926;53.222;6.354;2022-10-16T13:22:45;101407.00;;;18.30
38114;BMP180;23926;53.222;6.354;2022-10-16T13:28:27;101415.00;;;18.40
38114;BMP180;23926;53.222;6.354;2022-10-16T13:30:43;101392.00;;;18.40
38114;BMP180;23926;53.222;6.354;2022-10-16T13:35:35;101386.00;;;18.40
38114;BMP180;23926;53.222;6.354;2022-10-16T13:40:36;101411.00;;;18.50
38114;BMP180;23926;53.222;6.354;2022-10-16T13:43:12;101408.00;;;18.50
38114;BMP180;23926;53.222;6.354;2022-10-16T13:45:38;101410.00;;;18.40
38114;BMP180;23926;53.222;6.354;2022-10-16T13:48:09;101419.00;;;18.60
38114;BMP180;23926;53.222;6.354;2022-10-16T13:50:37;101446.00;;;18.60
38114;BMP180;23926;53.222;6.354;2022-10-16T13:53:07;101421.00;;;18.60
38114;BMP180;23926;53.222;6.354;2022-10-16T13:55:37;101415.00;;;18.60
38114;BMP180;23926;53.222;6.354;2022-10-16T13:58:13;101446.00;;;18.70
38114;BMP180;23926;53.222;6.354;2022-10-16T14:00:39;101446.00;;;18.80
38114;BMP180;23926;53.222;6.354;2022-10-16T14:03:11;101445.00;;;18.80
38114;BMP180;23926;53.222;6.354;2022-10-16T14:05:44;101456.00;;;18.90
38114;BMP180;23926;53.222;6.354;2022-10-16T14:08:12;101441.00;;;18.90
38114;BMP180;23926;53.222;6.354;2022-10-16T14:10:37;101447.00;;;18.90
38114;BMP180;23926;53.222;6.354;2022-10-16T14:13:05;101452.00;;;18.90
38114;BMP180;23926;53.222;6.354;2022-10-16T14:15:33;101452.00;;;18.80
38114;BMP180;23926;53.222;6.354;2022-10-16T14:17:59;101439.00;;;18.70
38114;BMP180;23926;53.222;6.354;2022-10-16T14:20:27;101458.00;;;18.70
38114;BMP180;23926;53.222;6.354;2022-10-16T14:23:17;101466.00;;;18.70
38114;BMP180;23926;53.222;6.354;2022-10-16T14:25:44;101459.00;;;18.70
38114;BMP180;23926;53.222;6.354;2022-10-16T14:30:35;101465.00;;;18.60
38114;BMP180;23926;53.222;6.354;2022-10-16T14:33:04;101468.00;;;18.60
38114;BMP180;23926;53.222;6.354;2022-10-16T14:35:35;101480.00;;;18.60
38114;BMP180;23926;53.222;6.354;2022-10-16T14:38:02;101494.00;;;18.60
38114;BMP180;23926;53.222;6.354;2022-10-16T14:40:34;101484.00;;;18.60
38114;BMP180;23926;53.222;6.354;2022-10-16T14:43:04;101485.00;;;18.60
38114;BMP180;23926;53.222;6.354;2022-10-16T14:45:32;101505.00;;;18.50
38114;BMP180;23926;53.222;6.354;2022-10-16T14:48:06;101498.00;;;18.50
38114;BMP180;23926;53.222;6.354;2022-10-16T14:50:39;101508.00;;;18.40
38114;BMP180;23926;53.222;6.354;2022-10-16T14:53:11;101512.00;;;18.40
38114;BMP180;23926;53.222;6.354;2022-10-16T14:55:37;101515.00;;;18.30
38114;BMP180;23926;53.222;6.354;2022-10-16T14:58:02;101519.00;;;18.30
38114;BMP180;23926;53.222;6.354;2022-10-16T15:00:28;101520.00;;;18.30
38114;BMP180;23926;53.222;6.354;2022-10-16T15:02:53;101507.00;;;18.30
38114;BMP180;23926;53.222;6.354;2022-10-16T15:05:21;101507.00;;;18.30
38114;BMP180;23926;53.222;6.354;2022-10-16T15:07:52;101503.00;;;18.30
38114;BMP180;23926;53.222;6.354;2022-10-16T15:10:20;101496.00;;;18.40
38114;BMP180;23926;53.222;6.354;2022-10-16T15:12:46;101498.00;;;18.40
38114;BMP180;23926;53.222;6.354;2022-10-16T15:15:33;101508.00;;;18.40
38114;BMP180;23926;53.222;6.354;2022-10-16T15:17:59;101508.00;;;18.40
38114;BMP180;23926;53.222;6.354;2022-10-16T15:20:31;101507.00;;;18.40
38114;BMP180;23926;53.222;6.354;2022-10-16T15:23:03;101520.00;;;18.50
38114;BMP180;23926;53.222;6.354;2022-10-16T15:25:38;101514.00;;;18.50
38114;BMP180;23926;53.222;6.354;2022-10-16T15:28:07;101517.00;;;18.50
38114;BMP180;23926;53.222;6.354;2022-10-16T15:30:34;101508.00;;;18.40
38114;BMP180;23926;53.222;6.354;2022-10-16T15:33:00;101511.00;;;18.40
38114;BMP180;23926;53.222;6.354;2022-10-16T15:35:25;101517.00;;;18.30
38114;BMP180;23926;53.222;6.354;2022-10-16T15:37:51;101512.00;;;18.30
38114;BMP180;23926;53.222;6.354;2022-10-16T15:40:17;101521.00;;;18.30
38114;BMP180;23926;53.222;6.354;2022-10-16T15:42:43;101522.00;;;18.20
38114;BMP180;23926;53.222;6.354;2022-10-16T15:45:10;101516.00;;;18.20
38114;BMP180;23926;53.222;6.354;2022-10-16T15:47:35;101522.00;;;18.10
38114;BMP180;23926;53.222;6.354;2022-10-16T15:50:01;101519.00;;;18.00
38114;BMP180;23926;53.222;6.354;2022-10-16T15:52:26;101522.00;;;17.90
38114;BMP180;23926;53.222;6.354;2022-10-16T15:54:53;101523.00;;;17.90
38114;BMP180;23926;53.222;6.354;2022-10-16T15:57:19;101518.00;;;17.80
38114;BMP180;23926;53.222;6.354;2022-10-16T15:59:44;101530.00;;;17.70
38114;BMP180;23926;53.222;6.354;2022-10-16T16:02:10;101529.00;;;17.70
38114;BMP180;23926;53.222;6.354;2022-10-16T16:04:35;101535.00;;;17.60
38114;BMP180;23926;53.222;6.354;2022-10-16T16:07:01;101536.00;;;17.50